sensor_id;sensor_type;location;lat;lon;timestamp;temperature;humidity
8945;DHT22;4507;40.232;29.132;2023-04-01T00:01:49;8.80;76.80
8945;DHT22;4507;40.232;29.132;2023-04-01T00:04:18;8.80;77.00
8945;DHT22;4507;40.232;29.132;2023-04-01T00:06:49;8.80;77.20
8945;DHT22;4507;40.232;29.132;2023-04-01T00:09:19;8.80;77.40
8945;DHT22;4507;40.232;29.132;2023-04-01T00:11:48;8.80;77.30
8945;DHT22;4507;40.232;29.132;2023-04-01T00:14:17;8.80;77.20
8945;DHT22;4507;40.232;29.132;2023-04-01T00:16:46;8.80;77.50
8945;DHT22;4507;40.232;29.132;2023-04-01T00:19:14;8.80;77.60
8945;DHT22;4507;40.232;29.132;2023-04-01T00:21:43;8.80;77.70
8945;DHT22;4507;40.232;29.132;2023-04-01T00:24:14;8.80;77.60
8945;DHT22;4507;40.232;29.132;2023-04-01T00:26:43;8.80;77.70
8945;DHT22;4507;40.232;29.132;2023-04-01T00:29:11;8.80;77.60
8945;DHT22;4507;40.232;29.132;2023-04-01T00:31:40;8.80;77.60
8945;DHT22;4507;40.232;29.132;2023-04-01T00:34:10;8.80;77.40
8945;DHT22;4507;40.232;29.132;2023-04-01T00:36:38;8.80;77.30
8945;DHT22;4507;40.232;29.132;2023-04-01T00:39:07;8.80;77.30
8945;DHT22;4507;40.232;29.132;2023-04-01T00:41:38;8.80;77.20
8945;DHT22;4507;40.232;29.132;2023-04-01T00:44:16;8.80;77.20
8945;DHT22;4507;40.232;29.132;2023-04-01T00:46:46;8.80;77.20
8945;DHT22;4507;40.232;29.132;2023-04-01T00:49:19;8.70;77.20
8945;DHT22;4507;40.232;29.132;2023-04-01T00:51:51;8.70;77.10
8945;DHT22;4507;40.232;29.132;2023-04-01T00:54:21;8.80;77.30
8945;DHT22;4507;40.232;29.132;2023-04-01T00:56:55;8.80;77.50
8945;DHT22;4507;40.232;29.132;2023-04-01T00:59:27;8.90;77.70
8945;DHT22;4507;40.232;29.132;2023-04-01T01:01:58;9.00;77.80
8945;DHT22;4507;40.232;29.132;2023-04-01T01:04:29;9.00;77.40
8945;DHT22;4507;40.232;29.132;2023-04-01T01:07:07;9.00;77.00
8945;DHT22;4507;40.232;29.132;2023-04-01T01:09:46;9.00;77.00
8945;DHT22;4507;40.232;29.132;2023-04-01T01:12:42;9.10;77.00
8945;DHT22;4507;40.232;29.132;2023-04-01T01:15:19;9.10;76.90
8945;DHT22;4507;40.232;29.132;2023-04-01T01:17:58;9.00;76.70
8945;DHT22;4507;40.232;29.132;2023-04-01T01:20:55;9.00;76.60
8945;DHT22;4507;40.232;29.132;2023-04-01T01:23:57;9.00;76.70
8945;DHT22;4507;40.232;29.132;2023-04-01T01:26:42;9.00;76.90
8945;DHT22;4507;40.232;29.132;2023-04-01T01:29:32;8.90;76.90
8945;DHT22;4507;40.232;29.132;2023-04-01T01:32:06;8.80;76.80
8945;DHT22;4507;40.232;29.132;2023-04-01T01:34:43;8.80;77.00
8945;DHT22;4507;40.232;29.132;2023-04-01T01:37:20;8.70;77.30
8945;DHT22;4507;40.232;29.132;2023-04-01T01:39:55;8.60;77.40
8945;DHT22;4507;40.232;29.132;2023-04-01T01:42:47;8.60;77.70
8945;DHT22;4507;40.232;29.132;2023-04-01T01:45:19;8.60;77.90
8945;DHT22;4507;40.232;29.132;2023-04-01T01:47:49;8.50;78.00
8945;DHT22;4507;40.232;29.132;2023-04-01T01:50:19;8.50;78.20
8945;DHT22;4507;40.232;29.132;2023-04-01T01:55:47;8.40;78.80
8945;DHT22;4507;40.232;29.132;2023-04-01T01:58:19;8.40;79.00
8945;DHT22;4507;40.232;29.132;2023-04-01T02:00:51;8.40;79.20
8945;DHT22;4507;40.232;29.132;2023-04-01T02:03:23;8.40;79.30
8945;DHT22;4507;40.232;29.132;2023-04-01T02:05:55;8.30;79.40
8945;DHT22;4507;40.232;29.132;2023-04-01T02:08:29;8.30;79.60
8945;DHT22;4507;40.232;29.132;2023-04-01T02:11:04;8.40;80.00
8945;DHT22;4507;40.232;29.132;2023-04-01T02:13:40;8.40;80.20
8945;DHT22;4507;40.232;29.132;2023-04-01T02:16:14;8.40;80.20
8945;DHT22;4507;40.232;29.132;2023-04-01T02:18:46;8.40;80.10
8945;DHT22;4507;40.232;29.132;2023-04-01T02:21:17;8.40;80.10
8945;DHT22;4507;40.232;29.132;2023-04-01T02:24:11;8.40;80.20
8945;DHT22;4507;40.232;29.132;2023-04-01T02:26:41;8.40;80.40
8945;DHT22;4507;40.232;29.132;2023-04-01T02:29:11;8.30;80.50
8945;DHT22;4507;40.232;29.132;2023-04-01T02:31:42;8.30;80.60
8945;DHT22;4507;40.232;29.132;2023-04-01T02:34:11;8.30;80.80
8945;DHT22;4507;40.232;29.132;2023-04-01T02:36:41;8.30;80.90
8945;DHT22;4507;40.232;29.132;2023-04-01T02:39:11;8.20;80.90
8945;DHT22;4507;40.232;29.132;2023-04-01T02:41:43;8.20;81.10
8945;DHT22;4507;40.232;29.132;2023-04-01T02:44:13;8.20;81.30
8945;DHT22;4507;40.232;29.132;2023-04-01T02:46:43;8.10;81.50
8945;DHT22;4507;40.232;29.132;2023-04-01T02:49:12;8.10;81.60
8945;DHT22;4507;40.232;29.132;2023-04-01T02:51:41;8.10;81.90
8945;DHT22;4507;40.232;29.132;2023-04-01T02:54:12;8.10;82.10
8945;DHT22;4507;40.232;29.132;2023-04-01T02:56:42;8.10;82.30
8945;DHT22;4507;40.232;29.132;2023-04-01T02:59:11;8.20;82.50
8945;DHT22;4507;40.232;29.132;2023-04-01T03:01:40;8.20;82.40
8945;DHT22;4507;40.232;29.132;2023-04-01T03:04:09;8.20;82.30
8945;DHT22;4507;40.232;29.132;2023-04-01T03:06:38;8.20;82.30
8945;DHT22;4507;40.232;29.132;2023-04-01T03:09:07;8.20;82.40
8945;DHT22;4507;40.232;29.132;2023-04-01T03:11:37;8.20;82.50
8945;DHT22;4507;40.232;29.132;2023-04-01T03:14:08;8.20;82.50
8945;DHT22;4507;40.232;29.132;2023-04-01T03:16:37;8.30;83.20
8945;DHT22;4507;40.232;29.132;2023-04-01T03:19:06;8.20;82.40
8945;DHT22;4507;40.232;29.132;2023-04-01T03:21:35;8.30;82.60
8945;DHT22;4507;40.232;29.132;2023-04-01T03:24:04;8.20;82.50
8945;DHT22;4507;40.232;29.132;2023-04-01T03:26:33;8.20;82.70
8945;DHT22;4507;40.232;29.132;2023-04-01T03:29:04;8.20;82.80
8945;DHT22;4507;40.232;29.132;2023-04-01T03:31:33;8.20;83.00
8945;DHT22;4507;40.232;29.132;2023-04-01T03:34:02;8.20;83.00
8945;DHT22;4507;40.232;29.132;2023-04-01T03:36:31;8.20;83.00
8945;DHT22;4507;40.232;29.132;2023-04-01T03:39:00;8.30;83.30
8945;DHT22;4507;40.232;29.132;2023-04-01T03:41:38;8.30;83.40
8945;DHT22;4507;40.232;29.132;2023-04-01T03:44:10;8.30;83.40
8945;DHT22;4507;40.232;29.132;2023-04-01T03:46:43;8.30;83.30
8945;DHT22;4507;40.232;29.132;2023-04-01T03:49:14;8.40;83.40
8945;DHT22;4507;40.232;29.132;2023-04-01T03:51:43;8.40;83.30
8945;DHT22;4507;40.232;29.132;2023-04-01T03:54:13;8.40;83.40
8945;DHT22;4507;40.232;29.132;2023-04-01T03:56:43;8.40;83.40
8945;DHT22;4507;40.232;29.132;2023-04-01T03:59:14;8.50;83.50
8945;DHT22;4507;40.232;29.132;2023-04-01T04:01:43;8.50;83.30
8945;DHT22;4507;40.232;29.132;2023-04-01T04:04:12;8.50;83.40
8945;DHT22;4507;40.232;29.132;2023-04-01T04:06:42;8.50;83.40
8945;DHT22;4507;40.232;29.132;2023-04-01T04:09:11;8.50;83.40
8945;DHT22;4507;40.232;29.132;2023-04-01T04:11:40;8.50;83.50
8945;DHT22;4507;40.232;29.132;2023-04-01T04:14:10;8.50;83.70
8945;DHT22;4507;40.232;29.132;2023-04-01T04:16:40;8.50;83.70
8945;DHT22;4507;40.232;29.132;2023-04-01T04:19:10;8.60;83.90
8945;DHT22;4507;40.232;29.132;2023-04-01T04:21:39;8.60;84.10
8945;DHT22;4507;40.232;29.132;2023-04-01T04:24:09;8.60;84.30
8945;DHT22;4507;40.232;29.132;2023-04-01T04:27:06;8.60;84.60
8945;DHT22;4507;40.232;29.132;2023-04-01T04:29:42;8.70;85.20
8945;DHT22;4507;40.232;29.132;2023-04-01T04:32:12;8.70;85.40
8945;DHT22;4507;40.232;29.132;2023-04-01T04:34:41;8.80;85.80
8945;DHT22;4507;40.232;29.132;2023-04-01T04:37:10;8.90;86.40
8945;DHT22;4507;40.232;29.132;2023-04-01T04:39:39;9.00;87.00
8945;DHT22;4507;40.232;29.132;2023-04-01T04:42:08;9.10;87.50
8945;DHT22;4507;40.232;29.132;2023-04-01T04:44:37;9.30;87.90
8945;DHT22;4507;40.232;29.132;2023-04-01T04:47:07;9.40;87.40
8945;DHT22;4507;40.232;29.132;2023-04-01T04:49:37;9.60;87.70
8945;DHT22;4507;40.232;29.132;2023-04-01T04:52:09;9.80;88.80
8945;DHT22;4507;40.232;29.132;2023-04-01T04:54:38;10.00;88.60
8945;DHT22;4507;40.232;29.132;2023-04-01T04:57:07;10.30;88.40
8945;DHT22;4507;40.232;29.132;2023-04-01T04:59:43;10.50;88.00
8945;DHT22;4507;40.232;29.132;2023-04-01T05:02:17;10.80;88.40
8945;DHT22;4507;40.232;29.132;2023-04-01T05:04:48;11.10;87.60
8945;DHT22;4507;40.232;29.132;2023-04-01T05:07:20;11.40;86.20
8945;DHT22;4507;40.232;29.132;2023-04-01T05:09:54;11.60;83.40
8945;DHT22;4507;40.232;29.132;2023-04-01T05:12:27;12.00;81.30
8945;DHT22;4507;40.232;29.132;2023-04-01T05:14:59;12.00;80.20
8945;DHT22;4507;40.232;29.132;2023-04-01T05:17:29;12.10;80.30
8945;DHT22;4507;40.232;29.132;2023-04-01T05:19:59;12.40;81.30
8945;DHT22;4507;40.232;29.132;2023-04-01T05:22:29;12.60;81.10
8945;DHT22;4507;40.232;29.132;2023-04-01T05:24:58;12.90;78.10
8945;DHT22;4507;40.232;29.132;2023-04-01T05:27:29;13.20;77.40
8945;DHT22;4507;40.232;29.132;2023-04-01T05:30:03;13.40;75.80
8945;DHT22;4507;40.232;29.132;2023-04-01T05:32:55;13.60;75.70
8945;DHT22;4507;40.232;29.132;2023-04-01T05:35:26;13.80;74.70
8945;DHT22;4507;40.232;29.132;2023-04-01T05:37:55;14.00;74.50
8945;DHT22;4507;40.232;29.132;2023-04-01T05:40:28;14.10;73.20
8945;DHT22;4507;40.232;29.132;2023-04-01T05:42:59;14.30;72.50
8945;DHT22;4507;40.232;29.132;2023-04-01T05:45:28;14.60;72.00
8945;DHT22;4507;40.232;29.132;2023-04-01T05:48:30;14.80;71.20
8945;DHT22;4507;40.232;29.132;2023-04-01T05:51:00;15.00;69.90
8945;DHT22;4507;40.232;29.132;2023-04-01T05:53:29;15.20;68.30
8945;DHT22;4507;40.232;29.132;2023-04-01T05:56:02;15.40;66.60
8945;DHT22;4507;40.232;29.132;2023-04-01T05:58:38;15.50;66.00
8945;DHT22;4507;40.232;29.132;2023-04-01T06:01:16;15.60;66.10
8945;DHT22;4507;40.232;29.132;2023-04-01T06:03:46;15.80;65.90
8945;DHT22;4507;40.232;29.132;2023-04-01T06:06:24;16.00;64.80
8945;DHT22;4507;40.232;29.132;2023-04-01T06:08:58;16.10;63.30
8945;DHT22;4507;40.232;29.132;2023-04-01T06:11:34;16.30;61.80
8945;DHT22;4507;40.232;29.132;2023-04-01T06:14:16;16.40;60.60
8945;DHT22;4507;40.232;29.132;2023-04-01T06:17:03;16.50;59.80
8945;DHT22;4507;40.232;29.132;2023-04-01T06:19:41;16.60;59.30
8945;DHT22;4507;40.232;29.132;2023-04-01T06:22:41;16.60;58.30
8945;DHT22;4507;40.232;29.132;2023-04-01T06:25:43;16.60;57.80
8945;DHT22;4507;40.232;29.132;2023-04-01T06:31:33;16.60;57.80
8945;DHT22;4507;40.232;29.132;2023-04-01T06:34:35;16.60;57.60
8945;DHT22;4507;40.232;29.132;2023-04-01T06:37:28;16.60;56.80
8945;DHT22;4507;40.232;29.132;2023-04-01T06:40:22;16.70;56.80
8945;DHT22;4507;40.232;29.132;2023-04-01T06:43:04;16.80;57.00
8945;DHT22;4507;40.232;29.132;2023-04-01T06:46:04;16.90;56.50
8945;DHT22;4507;40.232;29.132;2023-04-01T06:49:09;17.00;56.20
8945;DHT22;4507;40.232;29.132;2023-04-01T06:51:49;17.00;55.10
8945;DHT22;4507;40.232;29.132;2023-04-01T06:54:46;17.00;54.80
8945;DHT22;4507;40.232;29.132;2023-04-01T06:57:39;17.00;55.00
8945;DHT22;4507;40.232;29.132;2023-04-01T07:00:29;16.90;56.00
8945;DHT22;4507;40.232;29.132;2023-04-01T07:03:18;16.90;56.20
8945;DHT22;4507;40.232;29.132;2023-04-01T07:05:49;17.00;56.50
8945;DHT22;4507;40.232;29.132;2023-04-01T07:08:23;17.20;55.90
8945;DHT22;4507;40.232;29.132;2023-04-01T07:10:56;17.30;55.90
8945;DHT22;4507;40.232;29.132;2023-04-01T07:13:49;17.30;55.90
8945;DHT22;4507;40.232;29.132;2023-04-01T07:16:21;17.30;55.60
8945;DHT22;4507;40.232;29.132;2023-04-01T07:18:56;17.40;56.30
8945;DHT22;4507;40.232;29.132;2023-04-01T07:21:42;17.50;57.20
8945;DHT22;4507;40.232;29.132;2023-04-01T07:24:25;17.70;55.90
8945;DHT22;4507;40.232;29.132;2023-04-01T07:27:07;17.80;55.30
8945;DHT22;4507;40.232;29.132;2023-04-01T07:29:40;17.90;55.00
8945;DHT22;4507;40.232;29.132;2023-04-01T07:32:22;17.90;54.50
8945;DHT22;4507;40.232;29.132;2023-04-01T07:35:07;17.90;53.90
8945;DHT22;4507;40.232;29.132;2023-04-01T07:37:45;17.80;54.10
8945;DHT22;4507;40.232;29.132;2023-04-01T07:40:24;17.70;54.00
8945;DHT22;4507;40.232;29.132;2023-04-01T07:43:09;17.70;54.40
8945;DHT22;4507;40.232;29.132;2023-04-01T07:45:58;17.80;54.30
8945;DHT22;4507;40.232;29.132;2023-04-01T07:48:33;17.80;54.60
8945;DHT22;4507;40.232;29.132;2023-04-01T07:51:09;17.90;54.50
8945;DHT22;4507;40.232;29.132;2023-04-01T07:53:45;18.00;54.20
8945;DHT22;4507;40.232;29.132;2023-04-01T07:56:18;18.10;53.60
8945;DHT22;4507;40.232;29.132;2023-04-01T07:59:17;18.20;54.30
8945;DHT22;4507;40.232;29.132;2023-04-01T08:02:25;18.40;55.00
8945;DHT22;4507;40.232;29.132;2023-04-01T08:05:04;18.60;54.30
8945;DHT22;4507;40.232;29.132;2023-04-01T08:07:45;18.70;53.20
8945;DHT22;4507;40.232;29.132;2023-04-01T08:10:39;18.90;53.10
8945;DHT22;4507;40.232;29.132;2023-04-01T08:13:40;19.00;53.30
8945;DHT22;4507;40.232;29.132;2023-04-01T08:16:35;19.10;52.80
8945;DHT22;4507;40.232;29.132;2023-04-01T08:19:18;19.20;52.60
8945;DHT22;4507;40.232;29.132;2023-04-01T08:21:57;19.30;53.40
8945;DHT22;4507;40.232;29.132;2023-04-01T08:24:33;19.60;53.50
8945;DHT22;4507;40.232;29.132;2023-04-01T08:27:23;19.70;51.60
8945;DHT22;4507;40.232;29.132;2023-04-01T08:29:58;19.90;50.60
8945;DHT22;4507;40.232;29.132;2023-04-01T08:32:34;19.90;50.10
8945;DHT22;4507;40.232;29.132;2023-04-01T08:35:16;20.00;50.50
8945;DHT22;4507;40.232;29.132;2023-04-01T08:37:48;20.20;50.60
8945;DHT22;4507;40.232;29.132;2023-04-01T08:40:49;20.30;50.40
8945;DHT22;4507;40.232;29.132;2023-04-01T08:43:33;20.40;49.90
8945;DHT22;4507;40.232;29.132;2023-04-01T08:46:21;20.60;48.60
8945;DHT22;4507;40.232;29.132;2023-04-01T08:49:05;20.70;48.80
8945;DHT22;4507;40.232;29.132;2023-04-01T08:52:10;20.80;49.50
8945;DHT22;4507;40.232;29.132;2023-04-01T08:55:25;20.90;49.00
8945;DHT22;4507;40.232;29.132;2023-04-01T08:58:17;21.10;47.90
8945;DHT22;4507;40.232;29.132;2023-04-01T09:01:14;21.20;47.80
8945;DHT22;4507;40.232;29.132;2023-04-01T09:04:04;21.30;48.30
8945;DHT22;4507;40.232;29.132;2023-04-01T09:06:44;21.40;47.70
8945;DHT22;4507;40.232;29.132;2023-04-01T09:09:45;21.40;48.00
8945;DHT22;4507;40.232;29.132;2023-04-01T09:12:45;21.40;48.20
8945;DHT22;4507;40.232;29.132;2023-04-01T09:18:49;21.40;47.40
8945;DHT22;4507;40.232;29.132;2023-04-01T09:21:37;21.50;47.20
8945;DHT22;4507;40.232;29.132;2023-04-01T09:27:25;21.70;47.90
8945;DHT22;4507;40.232;29.132;2023-04-01T09:36:04;22.40;45.90
8945;DHT22;4507;40.232;29.132;2023-04-01T09:38:49;22.60;46.00
8945;DHT22;4507;40.232;29.132;2023-04-01T09:41:30;22.80;46.60
8945;DHT22;4507;40.232;29.132;2023-04-01T09:44:18;23.00;46.70
8945;DHT22;4507;40.232;29.132;2023-04-01T09:47:19;23.20;45.30
8945;DHT22;4507;40.232;29.132;2023-04-01T09:50:03;23.30;45.80
8945;DHT22;4507;40.232;29.132;2023-04-01T09:52:47;23.50;45.40
8945;DHT22;4507;40.232;29.132;2023-04-01T09:56:05;23.50;45.60
8945;DHT22;4507;40.232;29.132;2023-04-01T10:15:34;23.60;44.50
8945;DHT22;4507;40.232;29.132;2023-04-01T10:24:23;23.70;45.80
8945;DHT22;4507;40.232;29.132;2023-04-01T10:27:20;23.60;45.30
8945;DHT22;4507;40.232;29.132;2023-04-01T10:30:34;23.60;44.70
8945;DHT22;4507;40.232;29.132;2023-04-01T10:36:41;23.50;44.90
8945;DHT22;4507;40.232;29.132;2023-04-01T10:39:37;23.50;45.30
8945;DHT22;4507;40.232;29.132;2023-04-01T10:49:33;24.30;45.80
8945;DHT22;4507;40.232;29.132;2023-04-01T10:52:34;24.70;45.30
8945;DHT22;4507;40.232;29.132;2023-04-01T10:55:41;25.10;45.00
8945;DHT22;4507;40.232;29.132;2023-04-01T10:59:13;25.50;44.60
8945;DHT22;4507;40.232;29.132;2023-04-01T11:02:37;25.90;44.60
8945;DHT22;4507;40.232;29.132;2023-04-01T11:15:25;26.90;40.20
8945;DHT22;4507;40.232;29.132;2023-04-01T11:18:36;27.00;40.10
8945;DHT22;4507;40.232;29.132;2023-04-01T11:21:42;27.20;40.10
8945;DHT22;4507;40.232;29.132;2023-04-01T11:27:40;26.90;39.10
8945;DHT22;4507;40.232;29.132;2023-04-01T11:30:33;26.90;40.70
8945;DHT22;4507;40.232;29.132;2023-04-01T11:33:16;27.10;40.70
8945;DHT22;4507;40.232;29.132;2023-04-01T11:36:02;27.50;39.50
8945;DHT22;4507;40.232;29.132;2023-04-01T11:38:54;27.90;39.70
8945;DHT22;4507;40.232;29.132;2023-04-01T11:41:52;28.40;39.00
8945;DHT22;4507;40.232;29.132;2023-04-01T11:44:51;28.90;37.20
8945;DHT22;4507;40.232;29.132;2023-04-01T11:50:43;29.50;36.50
8945;DHT22;4507;40.232;29.132;2023-04-01T11:53:23;29.60;36.50
8945;DHT22;4507;40.232;29.132;2023-04-01T11:56:10;29.70;35.40
8945;DHT22;4507;40.232;29.132;2023-04-01T11:58:57;29.90;35.30
8945;DHT22;4507;40.232;29.132;2023-04-01T12:01:53;29.90;34.50
8945;DHT22;4507;40.232;29.132;2023-04-01T12:07:50;29.80;33.00
8945;DHT22;4507;40.232;29.132;2023-04-01T12:10:27;29.60;33.50
8945;DHT22;4507;40.232;29.132;2023-04-01T12:13:03;29.50;33.00
8945;DHT22;4507;40.232;29.132;2023-04-01T12:15:45;29.20;31.70
8945;DHT22;4507;40.232;29.132;2023-04-01T12:18:22;29.10;32.30
8945;DHT22;4507;40.232;29.132;2023-04-01T12:20:58;28.80;33.90
8945;DHT22;4507;40.232;29.132;2023-04-01T12:23:51;28.80;34.50
8945;DHT22;4507;40.232;29.132;2023-04-01T12:26:35;28.80;33.60
8945;DHT22;4507;40.232;29.132;2023-04-01T12:29:26;28.70;34.20
8945;DHT22;4507;40.232;29.132;2023-04-01T12:32:17;28.70;33.70
8945;DHT22;4507;40.232;29.132;2023-04-01T12:35:17;28.70;33.70
8945;DHT22;4507;40.232;29.132;2023-04-01T12:38:06;28.50;33.90
8945;DHT22;4507;40.232;29.132;2023-04-01T12:46:29;27.90;33.60
8945;DHT22;4507;40.232;29.132;2023-04-01T12:49:19;27.80;33.30
8945;DHT22;4507;40.232;29.132;2023-04-01T12:52:07;27.70;34.00
8945;DHT22;4507;40.232;29.132;2023-04-01T12:55:00;27.60;33.90
8945;DHT22;4507;40.232;29.132;2023-04-01T12:58:14;27.30;33.60
8945;DHT22;4507;40.232;29.132;2023-04-01T13:01:14;27.00;33.60
8945;DHT22;4507;40.232;29.132;2023-04-01T13:06:46;26.80;34.20
8945;DHT22;4507;40.232;29.132;2023-04-01T13:09:28;26.70;33.80
8945;DHT22;4507;40.232;29.132;2023-04-01T13:12:17;26.60;33.60
8945;DHT22;4507;40.232;29.132;2023-04-01T13:15:08;26.40;33.60
8945;DHT22;4507;40.232;29.132;2023-04-01T13:17:47;26.30;34.00
8945;DHT22;4507;40.232;29.132;2023-04-01T13:20:27;26.30;34.90
8945;DHT22;4507;40.232;29.132;2023-04-01T13:23:08;26.40;34.40
8945;DHT22;4507;40.232;29.132;2023-04-01T13:25:43;26.50;35.00
8945;DHT22;4507;40.232;29.132;2023-04-01T13:28:24;26.50;34.70
8945;DHT22;4507;40.232;29.132;2023-04-01T13:31:01;26.50;35.40
8945;DHT22;4507;40.232;29.132;2023-04-01T13:33:35;26.40;34.20
8945;DHT22;4507;40.232;29.132;2023-04-01T13:36:14;26.40;35.20
8945;DHT22;4507;40.232;29.132;2023-04-01T13:38:58;26.50;35.90
8945;DHT22;4507;40.232;29.132;2023-04-01T13:41:40;26.60;35.90
8945;DHT22;4507;40.232;29.132;2023-04-01T13:44:17;26.70;35.50
8945;DHT22;4507;40.232;29.132;2023-04-01T13:47:10;26.70;35.10
8945;DHT22;4507;40.232;29.132;2023-04-01T13:50:06;26.70;35.10
8945;DHT22;4507;40.232;29.132;2023-04-01T13:53:07;26.70;34.60
8945;DHT22;4507;40.232;29.132;2023-04-01T13:55:57;26.80;34.30
8945;DHT22;4507;40.232;29.132;2023-04-01T13:59:08;26.80;33.60
8945;DHT22;4507;40.232;29.132;2023-04-01T14:01:47;26.70;33.50
8945;DHT22;4507;40.232;29.132;2023-04-01T14:04:42;26.70;33.80
8945;DHT22;4507;40.232;29.132;2023-04-01T14:07:37;26.70;33.10
8945;DHT22;4507;40.232;29.132;2023-04-01T14:10:19;26.70;33.40
8945;DHT22;4507;40.232;29.132;2023-04-01T14:12:58;26.70;33.10
8945;DHT22;4507;40.232;29.132;2023-04-01T14:15:47;26.60;33.10
8945;DHT22;4507;40.232;29.132;2023-04-01T14:18:39;26.60;33.80
8945;DHT22;4507;40.232;29.132;2023-04-01T14:21:35;26.70;34.20
8945;DHT22;4507;40.232;29.132;2023-04-01T14:24:23;26.70;34.70
8945;DHT22;4507;40.232;29.132;2023-04-01T14:27:30;26.60;34.20
8945;DHT22;4507;40.232;29.132;2023-04-01T14:30:27;26.60;33.90
8945;DHT22;4507;40.232;29.132;2023-04-01T14:33:06;26.40;32.80
8945;DHT22;4507;40.232;29.132;2023-04-01T14:35:46;26.30;33.20
8945;DHT22;4507;40.232;29.132;2023-04-01T14:38:35;26.10;33.40
8945;DHT22;4507;40.232;29.132;2023-04-01T14:41:19;25.90;33.50
8945;DHT22;4507;40.232;29.132;2023-04-01T14:47:09;25.60;33.90
8945;DHT22;4507;40.232;29.132;2023-04-01T14:49:42;25.40;34.10
8945;DHT22;4507;40.232;29.132;2023-04-01T14:52:21;25.20;34.50
8945;DHT22;4507;40.232;29.132;2023-04-01T14:54:52;25.10;34.90
8945;DHT22;4507;40.232;29.132;2023-04-01T14:57:24;24.90;35.00
8945;DHT22;4507;40.232;29.132;2023-04-01T15:00:00;24.70;34.90
8945;DHT22;4507;40.232;29.132;2023-04-01T15:02:50;24.60;35.30
8945;DHT22;4507;40.232;29.132;2023-04-01T15:05:31;24.50;35.60
8945;DHT22;4507;40.232;29.132;2023-04-01T15:08:15;24.40;36.10
8945;DHT22;4507;40.232;29.132;2023-04-01T15:14:01;24.20;36.60
8945;DHT22;4507;40.232;29.132;2023-04-01T15:16:41;24.00;36.90
8945;DHT22;4507;40.232;29.132;2023-04-01T15:19:22;23.90;37.10
8945;DHT22;4507;40.232;29.132;2023-04-01T15:22:17;23.80;37.50
8945;DHT22;4507;40.232;29.132;2023-04-01T15:25:01;23.70;37.50
8945;DHT22;4507;40.232;29.132;2023-04-01T15:27:39;23.70;37.50
8945;DHT22;4507;40.232;29.132;2023-04-01T15:30:32;23.60;37.60
8945;DHT22;4507;40.232;29.132;2023-04-01T15:33:19;23.50;37.70
8945;DHT22;4507;40.232;29.132;2023-04-01T15:35:58;23.50;38.00
8945;DHT22;4507;40.232;29.132;2023-04-01T15:38:38;23.40;38.10
8945;DHT22;4507;40.232;29.132;2023-04-01T15:41:15;23.40;38.20
8945;DHT22;4507;40.232;29.132;2023-04-01T15:43:47;23.40;38.60
8945;DHT22;4507;40.232;29.132;2023-04-01T15:46:31;23.30;38.70
8945;DHT22;4507;40.232;29.132;2023-04-01T15:49:11;23.20;40.00
8945;DHT22;4507;40.232;29.132;2023-04-01T15:51:53;23.20;41.10
8945;DHT22;4507;40.232;29.132;2023-04-01T15:57:21;23.00;41.10
8945;DHT22;4507;40.232;29.132;2023-04-01T16:00:25;22.90;40.30
8945;DHT22;4507;40.232;29.132;2023-04-01T16:03:12;22.90;39.80
8945;DHT22;4507;40.232;29.132;2023-04-01T16:05:58;22.90;39.80
8945;DHT22;4507;40.232;29.132;2023-04-01T16:08:46;22.90;39.80
8945;DHT22;4507;40.232;29.132;2023-04-01T16:11:23;22.90;39.90
8945;DHT22;4507;40.232;29.132;2023-04-01T16:14:04;22.90;39.90
8945;DHT22;4507;40.232;29.132;2023-04-01T16:16:48;22.90;40.60
8945;DHT22;4507;40.232;29.132;2023-04-01T16:19:37;22.80;40.40
8945;DHT22;4507;40.232;29.132;2023-04-01T16:22:14;22.70;40.20
8945;DHT22;4507;40.232;29.132;2023-04-01T16:24:48;22.70;40.40
8945;DHT22;4507;40.232;29.132;2023-04-01T16:27:25;22.70;40.40
8945;DHT22;4507;40.232;29.132;2023-04-01T16:30:01;22.60;40.30
8945;DHT22;4507;40.232;29.132;2023-04-01T16:32:37;22.60;40.20
8945;DHT22;4507;40.232;29.132;2023-04-01T16:35:31;22.50;40.30
8945;DHT22;4507;40.232;29.132;2023-04-01T16:38:12;22.50;40.50
8945;DHT22;4507;40.232;29.132;2023-04-01T16:40:47;22.50;40.60
8945;DHT22;4507;40.232;29.132;2023-04-01T16:43:26;22.40;40.70
8945;DHT22;4507;40.232;29.132;2023-04-01T16:46:31;22.40;41.00
8945;DHT22;4507;40.232;29.132;2023-04-01T16:49:32;22.40;41.00
8945;DHT22;4507;40.232;29.132;2023-04-01T16:52:14;22.30;41.00
8945;DHT22;4507;40.232;29.132;2023-04-01T16:54:50;22.20;41.10
8945;DHT22;4507;40.232;29.132;2023-04-01T16:57:26;22.20;41.20
8945;DHT22;4507;40.232;29.132;2023-04-01T17:00:09;22.20;41.30
8945;DHT22;4507;40.232;29.132;2023-04-01T17:02:47;22.10;41.60
8945;DHT22;4507;40.232;29.132;2023-04-01T17:05:17;22.10;41.70
8945;DHT22;4507;40.232;29.132;2023-04-01T17:07:49;22.10;41.80
8945;DHT22;4507;40.232;29.132;2023-04-01T17:10:33;22.00;42.00
8945;DHT22;4507;40.232;29.132;2023-04-01T17:13:26;21.90;42.10
8945;DHT22;4507;40.232;29.132;2023-04-01T17:18:58;21.80;42.40
8945;DHT22;4507;40.232;29.132;2023-04-01T17:21:43;21.70;42.70
8945;DHT22;4507;40.232;29.132;2023-04-01T17:24:27;21.70;42.90
8945;DHT22;4507;40.232;29.132;2023-04-01T17:27:08;21.60;43.10
8945;DHT22;4507;40.232;29.132;2023-04-01T17:30:06;21.40;43.00
8945;DHT22;4507;40.232;29.132;2023-04-01T17:32:48;21.50;43.30
8945;DHT22;4507;40.232;29.132;2023-04-01T17:35:24;21.40;43.00
8945;DHT22;4507;40.232;29.132;2023-04-01T17:38:06;21.40;43.40
8945;DHT22;4507;40.232;29.132;2023-04-01T17:40:49;21.30;43.50
8945;DHT22;4507;40.232;29.132;2023-04-01T17:43:25;21.30;43.70
8945;DHT22;4507;40.232;29.132;2023-04-01T17:46:02;21.30;43.70
8945;DHT22;4507;40.232;29.132;2023-04-01T17:48:41;21.20;44.00
8945;DHT22;4507;40.232;29.132;2023-04-01T17:51:24;21.20;44.10
8945;DHT22;4507;40.232;29.132;2023-04-01T17:54:01;21.20;44.50
8945;DHT22;4507;40.232;29.132;2023-04-01T17:56:43;21.10;44.60
8945;DHT22;4507;40.232;29.132;2023-04-01T17:59:20;21.10;44.80
8945;DHT22;4507;40.232;29.132;2023-04-01T18:02:00;21.00;44.70
8945;DHT22;4507;40.232;29.132;2023-04-01T18:04:59;21.00;44.60
8945;DHT22;4507;40.232;29.132;2023-04-01T18:07:52;21.00;44.40
8945;DHT22;4507;40.232;29.132;2023-04-01T18:10:28;21.00;44.60
8945;DHT22;4507;40.232;29.132;2023-04-01T18:13:25;21.00;44.50
8945;DHT22;4507;40.232;29.132;2023-04-01T18:16:08;21.00;45.10
8945;DHT22;4507;40.232;29.132;2023-04-01T18:18:48;21.10;45.20
8945;DHT22;4507;40.232;29.132;2023-04-01T18:21:29;20.90;45.20
8945;DHT22;4507;40.232;29.132;2023-04-01T18:24:17;20.90;45.20
8945;DHT22;4507;40.232;29.132;2023-04-01T18:26:50;20.90;45.40
8945;DHT22;4507;40.232;29.132;2023-04-01T18:29:32;20.80;45.30
8945;DHT22;4507;40.232;29.132;2023-04-01T18:32:17;20.80;45.30
8945;DHT22;4507;40.232;29.132;2023-04-01T18:34:58;20.80;45.60
8945;DHT22;4507;40.232;29.132;2023-04-01T18:37:32;20.80;45.70
8945;DHT22;4507;40.232;29.132;2023-04-01T18:40:17;20.80;45.90
8945;DHT22;4507;40.232;29.132;2023-04-01T18:42:59;20.70;46.10
8945;DHT22;4507;40.232;29.132;2023-04-01T18:45:36;20.70;46.30
8945;DHT22;4507;40.232;29.132;2023-04-01T18:48:17;20.60;46.50
8945;DHT22;4507;40.232;29.132;2023-04-01T18:50:53;20.50;46.70